createdAt,value
2022-09-18T03:17:56.431Z,5.90
2022-09-18T06:09:29.535Z,4.18
2022-09-18T06:11:57.998Z,4.50
2022-09-18T06:14:25.249Z,4.95
2022-09-18T06:26:05.891Z,3.53
2022-09-18T06:28:47.930Z,3.92
2022-09-18T06:31:15.976Z,4.80
2022-09-18T06:34:04.595Z,4.10
2022-09-18T06:36:31.866Z,4.90
2022-09-18T06:39:15.798Z,3.63
2022-09-18T06:41:45.296Z,5.28
2022-09-18T06:44:25.955Z,3.38
2022-09-18T06:47:05.225Z,6.88
2022-09-18T06:55:53.003Z,4.22
2022-09-18T08:42:07.912Z,3.78
2022-09-18T08:44:59.602Z,3.20
2022-09-18T08:47:43.150Z,1.98
2022-09-18T08:50:24.565Z,3.13
2022-09-18T08:53:22.596Z,2.10
2022-09-18T09:01:42.861Z,2.78
2022-09-18T09:33:22.777Z,2.90
2022-09-18T09:36:19.154Z,2.08
2022-09-18T13:44:36.704Z,1.70
2022-09-18T14:08:45.900Z,2.45
2022-09-18T14:20:57.434Z,2.75
2022-09-18T14:23:35.488Z,1.88
2022-09-18T14:26:28.581Z,2.50
2022-09-18T14:29:06.603Z,2.60
2022-09-18T14:31:55.428Z,3.75
2022-09-18T14:34:33.797Z,4.78
2022-09-18T14:37:24.685Z,5.10
2022-09-18T14:39:55.184Z,3.50
2022-09-18T14:42:39.625Z,4.10
2022-09-18T14:45:09.702Z,3.75
2022-09-18T14:47:38.353Z,4.18
2022-09-18T14:50:41.284Z,3.47
2022-09-18T14:56:05.976Z,3.78
2022-09-18T14:58:40.702Z,5.25
2022-09-18T15:01:45.564Z,4.35
2022-09-18T15:04:20.171Z,6.03
2022-09-18T15:06:54.419Z,4.93
2022-09-18T15:09:34.763Z,5.82
2022-09-18T15:12:03.329Z,6.57
2022-09-18T15:14:42.680Z,4.13
2022-09-18T15:17:23.574Z,5.93
2022-09-18T15:20:17.824Z,5.35
2022-09-18T15:22:45.278Z,6.60
2022-09-18T15:25:15.264Z,5.15
2022-09-18T15:27:44.866Z,5.97
2022-09-18T15:30:19.887Z,4.22
2022-09-18T15:33:02.392Z,5.05
2022-09-18T15:35:35.756Z,5.45
2022-09-18T15:38:14.201Z,6.07
2022-09-18T15:40:43.538Z,8.77
2022-09-18T15:43:30.621Z,5.03
2022-09-18T15:46:08.366Z,5.50
2022-09-18T15:48:43.975Z,3.72
2022-09-18T15:51:17.346Z,5.65
2022-09-18T15:54:24.558Z,7.07
2022-09-18T15:57:00.884Z,5.78
2022-09-18T15:59:40.682Z,5.57
2022-09-18T16:02:38.935Z,5.30
2022-09-18T16:05:12.998Z,5.70
2022-09-18T16:07:52.665Z,5.65
2022-09-18T16:10:39.498Z,6.38
2022-09-18T16:13:15.339Z,4.82
2022-09-18T16:15:47.653Z,4.43
2022-09-18T16:18:29.146Z,6.68
2022-09-18T16:20:57.733Z,6.07
2022-09-18T16:23:33.109Z,4.65
2022-09-18T16:26:13.121Z,5.22
2022-09-18T16:28:52.210Z,5.40
2022-09-18T16:31:23.227Z,5.03
2022-09-18T16:34:36.953Z,5.57
2022-09-18T16:37:08.146Z,7.00
2022-09-18T16:39:35.298Z,6.45
2022-09-18T16:42:25.325Z,5.72
2022-09-18T16:44:52.884Z,6.00
2022-09-18T16:47:19.901Z,5.22
2022-09-18T16:49:49.451Z,5.70
2022-09-18T16:52:16.889Z,5.55
2022-09-18T16:54:43.930Z,6.68
2022-09-18T16:57:21.727Z,5.47
2022-09-18T16:59:50.675Z,5.88
2022-09-18T17:02:25.404Z,4.95
2022-09-18T17:04:53.334Z,4.90
2022-09-18T17:07:20.631Z,6.75
2022-09-18T17:09:48.123Z,4.95
2022-09-18T17:12:16.053Z,4.35
2022-09-18T17:14:43.401Z,3.92
2022-09-18T17:17:11.568Z,4.32
2022-09-18T17:19:41.098Z,3.75
2022-09-18T17:22:09.023Z,4.30
2022-09-18T17:24:36.428Z,5.03
2022-09-18T17:27:05.036Z,6.18
2022-09-18T17:29:32.610Z,4.50
2022-09-18T17:31:59.839Z,4.70
2022-09-18T17:34:28.379Z,4.10
2022-09-18T17:36:55.791Z,3.92
2022-09-18T17:39:22.783Z,4.50
2022-09-18T17:41:50.494Z,5.22
2022-09-18T17:44:17.948Z,4.68
2022-09-18T17:46:45.257Z,4.75
2022-09-18T17:49:12.529Z,3.88
2022-09-18T17:51:40.148Z,3.55
2022-09-18T17:54:08.143Z,3.33
2022-09-18T17:56:35.235Z,3.92
2022-09-18T17:59:11.202Z,4.57
2022-09-18T18:01:46.103Z,4.10
2022-09-18T18:04:14.500Z,4.35
2022-09-18T18:06:42.232Z,4.22
2022-09-18T18:09:10.222Z,5.22
2022-09-18T18:11:38.627Z,4.53
2022-09-18T18:14:06.011Z,4.00
2022-09-18T18:16:34.754Z,3.80
2022-09-18T18:19:08.101Z,4.15
2022-09-18T18:21:36.003Z,3.65
2022-09-18T18:24:11.818Z,4.95
2022-09-18T18:26:40.399Z,4.15
2022-09-18T18:29:13.177Z,4.72
2022-09-18T18:31:43.507Z,4.43
2022-09-18T18:34:13.557Z,4.82
2022-09-18T18:36:42.766Z,5.18
2022-09-18T18:39:13.006Z,4.68
2022-09-18T18:41:41.038Z,3.97
2022-09-18T18:44:11.407Z,5.93
2022-09-18T18:46:39.887Z,5.32
2022-09-18T18:49:15.306Z,5.70
2022-09-18T18:51:51.913Z,3.90
2022-09-18T18:54:22.067Z,5.32
2022-09-18T18:56:50.013Z,4.32
2022-09-18T18:59:19.857Z,4.70
2022-09-18T19:01:47.895Z,3.55
2022-09-18T19:04:19.276Z,5.18
2022-09-18T19:06:49.515Z,5.57
2022-09-18T19:09:21.520Z,5.75
2022-09-18T19:11:52.595Z,6.00
2022-09-18T19:14:28.086Z,4.55
2022-09-18T19:16:56.725Z,5.20
2022-09-18T19:19:28.319Z,4.75
2022-09-18T19:21:59.827Z,5.22
2022-09-18T19:24:30.039Z,3.95
2022-09-18T19:26:58.861Z,6.38
2022-09-18T19:29:27.547Z,4.75
2022-09-18T19:31:55.484Z,4.10
2022-09-18T19:34:22.665Z,4.45
2022-09-18T19:36:51.909Z,3.50
2022-09-18T19:39:23.832Z,3.90
2022-09-18T19:42:14.939Z,4.27
2022-09-18T19:44:52.223Z,4.55
2022-09-18T19:47:46.257Z,4.85
2022-09-18T19:50:28.110Z,5.30
2022-09-18T19:52:56.482Z,4.97
2022-09-18T19:55:23.973Z,3.75
2022-09-18T19:57:56.983Z,4.15
2022-09-18T20:00:26.287Z,4.10
2022-09-18T20:02:59.081Z,3.85
2022-09-18T20:05:27.242Z,4.40
2022-09-18T20:07:54.285Z,5.00
2022-09-18T20:10:22.825Z,3.85
2022-09-18T20:12:52.985Z,4.68
2022-09-18T20:15:20.433Z,4.35
2022-09-18T20:17:47.738Z,4.38
2022-09-18T20:20:16.563Z,4.22
2022-09-18T20:22:44.312Z,4.63
2022-09-18T20:25:11.785Z,4.80
2022-09-18T20:27:42.080Z,4.10
2022-09-18T20:30:13.173Z,4.65
2022-09-18T20:32:40.693Z,5.65
2022-09-18T20:35:08.417Z,4.60
2022-09-18T20:37:35.915Z,4.65
2022-09-18T20:40:06.497Z,4.55
2022-09-18T20:42:35.018Z,4.35
2022-09-18T20:45:02.964Z,4.15
2022-09-18T20:47:36.252Z,4.72
2022-09-18T20:50:07.117Z,3.80
2022-09-18T20:52:43.058Z,4.53
2022-09-18T20:55:15.397Z,5.00
2022-09-18T20:57:46.600Z,5.13
2022-09-18T21:00:16.139Z,5.22
2022-09-18T21:02:49.528Z,4.13
2022-09-18T21:05:16.940Z,3.60
2022-09-18T21:07:45.597Z,3.00
2022-09-18T21:10:14.885Z,3.40
2022-09-18T21:12:42.045Z,3.72
2022-09-18T21:15:14.329Z,3.55
2022-09-18T21:17:42.868Z,3.58
2022-09-18T21:20:10.756Z,4.32
2022-09-18T21:22:57.834Z,3.72
2022-09-18T21:25:25.399Z,3.67
2022-09-18T21:27:55.612Z,2.75
2022-09-18T21:30:25.414Z,4.03
2022-09-18T21:32:55.753Z,3.17
2022-09-18T21:35:23.182Z,3.08
2022-09-18T21:37:50.217Z,3.55
2022-09-18T21:40:17.408Z,2.85
2022-09-18T21:42:47.485Z,3.72
2022-09-18T21:45:20.536Z,3.45
2022-09-18T21:47:50.204Z,3.95
2022-09-18T21:50:17.700Z,2.90
2022-09-18T21:52:45.005Z,2.88
2022-09-18T21:55:12.971Z,3.67
2022-09-18T21:57:40.446Z,2.97
2022-09-18T22:00:09.932Z,3.20
2022-09-18T22:02:40.979Z,3.70
2022-09-18T22:05:12.463Z,3.03
2022-09-18T22:07:40.774Z,2.67
2022-09-18T22:10:08.860Z,3.55
2022-09-18T22:12:39.034Z,3.75
2022-09-18T22:15:06.926Z,2.70
2022-09-18T22:17:34.233Z,2.60
2022-09-18T22:20:01.465Z,3.30
2022-09-18T22:22:28.509Z,2.70
2022-09-18T22:24:56.958Z,3.33
2022-09-18T22:27:24.742Z,3.53
2022-09-18T22:29:51.733Z,3.47
2022-09-18T22:32:19.666Z,2.60
2022-09-18T22:34:46.865Z,3.60
2022-09-18T22:37:14.024Z,3.28
2022-09-18T22:39:41.470Z,3.88
2022-09-18T22:42:10.033Z,3.35
2022-09-18T22:44:37.041Z,2.70
2022-09-18T22:47:05.025Z,4.35
2022-09-18T22:49:32.081Z,4.18
2022-09-18T22:51:59.039Z,4.53
2022-09-18T22:54:26.948Z,4.35
2022-09-18T22:56:55.332Z,4.82
2022-09-18T22:59:26.106Z,6.32
2022-09-18T23:02:00.866Z,6.68
2022-09-18T23:04:30.296Z,5.13
2022-09-18T23:06:59.104Z,5.25
2022-09-18T23:09:27.472Z,5.22
2022-09-18T23:11:55.397Z,6.00
2022-09-18T23:14:28.634Z,4.75
2022-09-18T23:16:57.881Z,4.32
2022-09-18T23:19:30.595Z,6.05
2022-09-18T23:21:57.750Z,4.35
2022-09-18T23:24:26.159Z,4.50
2022-09-18T23:26:58.329Z,5.15
2022-09-18T23:29:27.793Z,4.03
2022-09-18T23:31:59.742Z,5.15
2022-09-18T23:34:30.878Z,3.60
2022-09-18T23:37:00.043Z,4.35
2022-09-18T23:39:33.950Z,3.75
2022-09-18T23:42:04.438Z,3.53
2022-09-18T23:44:32.849Z,4.57
2022-09-18T23:47:00.700Z,4.25
2022-09-18T23:49:29.349Z,4.40
2022-09-18T23:51:57.555Z,3.83
2022-09-18T23:54:28.513Z,3.90
2022-09-18T23:56:56.734Z,3.75
2022-09-18T23:59:26.153Z,3.63
